createdAt,value
2018-11-22T00:02:08.260Z,32.67
2018-11-22T00:04:37.785Z,38.83
2018-11-22T00:07:07.864Z,33.10
2018-11-22T00:09:37.474Z,35.20
2018-11-22T00:12:06.957Z,41.80
2018-11-22T00:14:36.473Z,37.10
2018-11-22T00:17:06.464Z,37.77
2018-11-22T00:19:35.907Z,32.87
2018-11-22T00:22:05.501Z,37.43
2018-11-22T00:24:34.965Z,37.70
2018-11-22T00:27:04.609Z,35.57
2018-11-22T00:29:34.233Z,33.10
2018-11-22T00:32:03.869Z,36.23
2018-11-22T00:34:33.425Z,37.70
2018-11-22T00:37:02.924Z,31.83
2018-11-22T00:39:32.440Z,35.03
2018-11-22T00:42:01.962Z,33.80
2018-11-22T00:44:31.460Z,35.20
2018-11-22T00:47:00.993Z,37.20
2018-11-22T00:49:30.507Z,34.30
2018-11-22T00:52:00.035Z,33.13
2018-11-22T00:54:29.601Z,33.40
2018-11-22T00:56:59.184Z,35.77
2018-11-22T00:59:28.647Z,38.07
2018-11-22T01:01:58.256Z,35.73
2018-11-22T01:04:27.836Z,27.90
2018-11-22T01:06:57.401Z,32.17
2018-11-22T01:09:26.915Z,32.87
2018-11-22T01:11:56.354Z,32.90
2018-11-22T01:14:25.865Z,38.13
2018-11-22T01:16:55.401Z,34.63
2018-11-22T01:19:24.954Z,33.03
2018-11-22T01:21:54.488Z,28.87
2018-11-22T01:24:24.037Z,26.73
2018-11-22T01:26:53.469Z,29.03
2018-11-22T01:29:22.907Z,36.40
2018-11-22T01:31:52.531Z,33.93
2018-11-22T01:34:22.099Z,30.70
2018-11-22T01:36:51.729Z,31.30
2018-11-22T01:39:21.157Z,32.60
2018-11-22T01:41:50.655Z,29.27
2018-11-22T01:44:20.168Z,30.70
2018-11-22T01:46:49.653Z,31.53
2018-11-22T01:49:19.126Z,31.30
2018-11-22T01:51:48.539Z,35.07
2018-11-22T01:54:18.028Z,31.40
2018-11-22T01:56:47.424Z,32.43
2018-11-22T01:59:16.824Z,30.30
2018-11-22T02:01:46.318Z,34.73
2018-11-22T02:04:15.808Z,27.47
2018-11-22T02:06:45.292Z,28.90
2018-11-22T02:09:14.772Z,30.73
2018-11-22T02:11:44.179Z,31.40
2018-11-22T02:14:13.740Z,30.13
2018-11-22T02:16:43.216Z,29.00
2018-11-22T02:19:12.712Z,28.13
2018-11-22T02:21:42.215Z,25.70
2018-11-22T02:24:11.693Z,32.50
2018-11-22T02:26:41.260Z,30.80
2018-11-22T02:29:11.277Z,32.53
2018-11-22T02:31:40.773Z,33.30
2018-11-22T02:34:10.238Z,28.63
2018-11-22T02:36:39.732Z,30.67
2018-11-22T02:39:10.980Z,31.13
2018-11-22T02:41:40.468Z,30.40
2018-11-22T02:44:10.144Z,28.83
2018-11-22T02:46:39.636Z,33.83
2018-11-22T02:49:09.101Z,29.10
2018-11-22T02:51:38.526Z,26.70
2018-11-22T02:54:07.921Z,29.60
2018-11-22T02:56:37.479Z,38.07
2018-11-22T02:59:06.980Z,28.70
2018-11-22T03:01:36.366Z,30.20
2018-11-22T03:04:06.063Z,32.33
2018-11-22T03:06:35.539Z,31.87
2018-11-22T03:09:08.285Z,30.57
2018-11-22T03:11:37.765Z,26.37
2018-11-22T03:14:07.357Z,32.47
2018-11-22T03:16:37.129Z,33.97
2018-11-22T03:19:06.940Z,33.30
2018-11-22T03:21:36.332Z,32.77
2018-11-22T03:24:06.105Z,30.90
2018-11-22T03:26:35.475Z,35.17
2018-11-22T03:29:05.413Z,28.57
2018-11-22T03:31:34.939Z,30.43
2018-11-22T03:34:04.522Z,29.30
2018-11-22T03:36:34.009Z,28.63
2018-11-22T03:39:04.563Z,28.70
2018-11-22T03:41:33.965Z,34.33
2018-11-22T03:44:03.540Z,28.70
2018-11-22T03:46:33.333Z,35.23
2018-11-22T03:49:02.828Z,28.37
2018-11-22T03:51:32.403Z,31.77
2018-11-22T03:54:01.912Z,29.47
2018-11-22T03:56:31.389Z,32.40
2018-11-22T03:59:00.896Z,32.70
2018-11-22T04:01:30.306Z,29.37
2018-11-22T04:03:59.799Z,36.63
2018-11-22T04:06:29.191Z,30.37
2018-11-22T04:08:58.704Z,38.10
2018-11-22T04:11:28.096Z,30.10
2018-11-22T04:13:57.576Z,31.23
2018-11-22T04:16:26.984Z,33.77
2018-11-22T04:18:56.480Z,30.23
2018-11-22T04:21:25.889Z,40.73
2018-11-22T04:23:55.387Z,31.33
2018-11-22T04:26:24.896Z,30.80
2018-11-22T04:28:54.381Z,35.70
2018-11-22T04:31:24.013Z,33.40
2018-11-22T04:33:53.520Z,34.87
2018-11-22T04:36:23.025Z,34.10
2018-11-22T04:38:52.440Z,31.07
2018-11-22T04:41:21.933Z,29.70
2018-11-22T04:43:51.579Z,35.97
2018-11-22T04:46:21.211Z,31.40
2018-11-22T04:48:50.715Z,30.10
2018-11-22T04:51:20.293Z,30.73
2018-11-22T04:53:49.716Z,30.80
2018-11-22T04:56:19.302Z,32.47
2018-11-22T04:58:48.809Z,35.07
2018-11-22T05:01:18.308Z,37.30
2018-11-22T05:03:47.724Z,30.80
2018-11-22T05:06:17.226Z,29.40
2018-11-22T05:08:46.629Z,38.87
2018-11-22T05:11:16.150Z,34.50
2018-11-22T05:13:45.569Z,34.57
2018-11-22T05:16:14.989Z,31.37
2018-11-22T05:18:44.492Z,33.50
2018-11-22T05:21:14.093Z,29.83
2018-11-22T05:23:43.499Z,32.93
2018-11-22T05:26:13.004Z,37.17
2018-11-22T05:28:42.500Z,35.73
2018-11-22T05:31:11.997Z,33.30
2018-11-22T05:33:41.412Z,30.83
2018-11-22T05:36:10.931Z,35.37
2018-11-22T05:38:40.326Z,36.07
2018-11-22T05:41:09.840Z,33.97
2018-11-22T05:43:39.224Z,40.40
2018-11-22T05:46:08.836Z,41.27
2018-11-22T05:48:38.313Z,36.77
2018-11-22T05:51:07.825Z,42.03
2018-11-22T05:53:37.313Z,36.83
2018-11-22T05:56:07.020Z,34.20
2018-11-22T05:58:36.417Z,36.67
2018-11-22T06:01:06.044Z,36.73
2018-11-22T06:03:35.528Z,32.43
2018-11-22T06:06:05.125Z,39.37
2018-11-22T06:08:34.717Z,33.70
2018-11-22T06:11:04.302Z,39.50
2018-11-22T06:13:33.792Z,36.27
2018-11-22T06:16:03.327Z,42.80
2018-11-22T06:18:32.736Z,40.70
2018-11-22T06:21:02.172Z,40.07
2018-11-22T06:23:31.590Z,37.70
2018-11-22T06:26:01.090Z,36.13
2018-11-22T06:28:30.513Z,35.77
2018-11-22T06:31:00.020Z,37.70
2018-11-22T06:33:29.500Z,35.63
2018-11-22T06:35:58.920Z,35.27
2018-11-22T06:38:28.405Z,34.50
2018-11-22T06:40:57.835Z,36.43
2018-11-22T06:43:27.260Z,36.90
2018-11-22T06:45:56.765Z,39.07
2018-11-22T06:48:26.186Z,37.90
2018-11-22T06:50:58.225Z,36.27
2018-11-22T06:53:25.224Z,35.27
2018-11-22T06:55:54.728Z,34.87
2018-11-22T06:58:24.144Z,36.53
2018-11-22T07:00:53.551Z,35.47
2018-11-22T07:03:23.044Z,38.27
2018-11-22T07:05:52.633Z,37.70
2018-11-22T07:08:22.064Z,34.23
2018-11-22T07:10:51.549Z,34.03
2018-11-22T07:13:20.988Z,37.60
2018-11-22T07:15:50.396Z,36.33
2018-11-22T07:18:19.828Z,35.70
2018-11-22T07:20:49.416Z,32.23
2018-11-22T07:23:18.865Z,37.33
2018-11-22T07:25:48.269Z,32.83
2018-11-22T07:28:17.757Z,37.40
2018-11-22T07:30:47.253Z,30.60
2018-11-22T07:33:16.672Z,35.33
2018-11-22T07:35:46.252Z,37.83
2018-11-22T07:38:15.788Z,33.37
2018-11-22T07:40:45.191Z,31.23
2018-11-22T07:43:14.712Z,31.10
2018-11-22T07:45:44.140Z,34.20
2018-11-22T07:48:13.621Z,30.37
2018-11-22T07:50:43.026Z,34.37
2018-11-22T07:53:12.420Z,31.60
2018-11-22T07:55:41.908Z,30.30
2018-11-22T07:58:11.475Z,33.20
2018-11-22T08:00:42.056Z,31.30
2018-11-22T08:03:12.437Z,35.10
2018-11-22T08:05:43.221Z,29.87
2018-11-22T08:08:12.626Z,35.23
2018-11-22T08:10:42.116Z,40.27
2018-11-22T08:13:11.521Z,34.27
2018-11-22T08:15:41.649Z,38.20
2018-11-22T08:18:11.692Z,32.40
2018-11-22T08:20:41.122Z,35.07
2018-11-22T08:23:11.176Z,33.03
2018-11-22T08:25:40.588Z,34.47
2018-11-22T08:28:09.992Z,46.03
2018-11-22T08:30:39.584Z,38.30
2018-11-22T08:33:09.000Z,41.20
2018-11-22T08:35:38.408Z,37.00
2018-11-22T08:38:08.065Z,36.93
2018-11-22T08:40:37.485Z,36.60
2018-11-22T08:43:07.517Z,39.90
2018-11-22T08:45:36.924Z,43.17
2018-11-22T08:48:06.564Z,40.73
2018-11-22T08:50:35.974Z,38.77
2018-11-22T08:53:05.670Z,35.73
2018-11-22T08:55:35.084Z,36.90
2018-11-22T08:58:04.577Z,42.70
2018-11-22T09:00:34.565Z,44.30
2018-11-22T09:03:04.056Z,34.87
2018-11-22T09:05:35.248Z,39.53
2018-11-22T09:08:04.726Z,37.30
2018-11-22T09:10:34.156Z,33.43
2018-11-22T09:13:04.224Z,37.17
2018-11-22T09:15:34.452Z,40.60
2018-11-22T09:18:03.940Z,35.93
2018-11-22T09:20:34.284Z,41.67
2018-11-22T09:23:03.844Z,40.27
2018-11-22T09:25:33.285Z,41.17
2018-11-22T09:28:02.676Z,40.13
2018-11-22T09:30:33.523Z,34.63
2018-11-22T09:33:02.929Z,41.07
2018-11-22T09:35:33.667Z,35.33
2018-11-22T09:38:03.052Z,40.53
2018-11-22T09:40:33.810Z,31.57
2018-11-22T09:43:03.375Z,33.13
2018-11-22T09:45:40.386Z,33.63
2018-11-22T09:48:09.921Z,35.80
2018-11-22T09:50:39.274Z,40.93
2018-11-22T09:53:10.108Z,33.83
2018-11-22T09:55:39.575Z,30.87
2018-11-22T09:58:08.944Z,40.53
2018-11-22T10:00:38.491Z,39.43
2018-11-22T10:03:08.014Z,36.10
2018-11-22T10:05:37.976Z,37.40
2018-11-22T10:08:07.439Z,31.50
2018-11-22T12:16:05.782Z,36.87
2018-11-22T12:18:36.869Z,32.63
2018-11-22T12:21:02.081Z,32.23
2018-11-22T12:23:30.237Z,31.73
2018-11-22T12:25:58.374Z,34.57
2018-11-22T12:28:26.514Z,33.53
2018-11-22T12:30:54.667Z,34.20
2018-11-22T12:33:41.197Z,32.00
2018-11-22T12:36:14.902Z,33.57
2018-11-22T12:38:43.765Z,29.40
2018-11-22T12:41:11.942Z,33.20
2018-11-22T12:43:40.117Z,35.30
2018-11-22T12:46:08.290Z,30.10
2018-11-22T12:48:36.471Z,31.73
2018-11-22T12:51:04.674Z,34.53
2018-11-22T12:53:32.841Z,35.37
2018-11-22T12:56:01.017Z,30.33
2018-11-22T12:58:29.189Z,35.20
2018-11-22T13:00:58.230Z,37.93
2018-11-22T13:03:26.449Z,33.93
2018-11-22T13:05:54.622Z,37.00
2018-11-22T13:08:22.834Z,37.87
2018-11-22T13:10:51.160Z,34.40
2018-11-22T13:13:19.383Z,33.00
2018-11-22T13:15:47.550Z,34.63
2018-11-22T13:18:15.721Z,31.97
2018-11-22T13:20:45.470Z,34.00
2018-11-22T13:23:13.674Z,36.33
2018-11-22T13:25:41.866Z,32.80
2018-11-22T13:28:10.026Z,36.20
2018-11-22T13:30:38.216Z,35.90
2018-11-22T13:33:06.393Z,35.60
2018-11-22T13:35:34.594Z,31.40
2018-11-22T13:38:02.759Z,33.53
2018-11-22T13:40:30.943Z,36.37
2018-11-22T13:42:59.157Z,32.83
2018-11-22T13:45:28.438Z,29.97
2018-11-22T13:47:57.333Z,33.00
2018-11-22T13:50:30.012Z,30.57
2018-11-22T13:52:59.834Z,30.90
2018-11-22T13:55:28.022Z,28.53
2018-11-22T13:57:56.257Z,32.27
2018-11-22T14:00:25.818Z,32.53
2018-11-22T14:02:55.470Z,31.43
2018-11-22T14:05:23.705Z,33.63
2018-11-22T14:07:52.121Z,38.83
2018-11-22T14:10:20.913Z,32.53
2018-11-22T14:12:49.377Z,31.40
2018-11-22T14:15:18.894Z,37.63
2018-11-22T14:17:47.634Z,30.97
2018-11-22T14:20:18.317Z,36.90
2018-11-22T14:22:46.529Z,32.53
2018-11-22T14:25:15.582Z,28.87
2018-11-22T14:27:44.568Z,31.60
2018-11-22T14:30:21.759Z,35.40
2018-11-22T14:32:50.846Z,33.93
2018-11-22T14:35:19.850Z,36.83
2018-11-22T14:37:47.991Z,38.90
2018-11-22T14:40:17.626Z,42.43
2018-11-22T14:42:46.610Z,40.20
2018-11-22T14:45:15.411Z,36.97
2018-11-22T14:47:44.491Z,34.87
2018-11-22T14:50:18.373Z,41.90
2018-11-22T14:52:48.895Z,40.50
2018-11-22T14:55:17.041Z,40.40
2018-11-22T14:57:45.191Z,43.60
2018-11-22T15:00:14.539Z,39.30
2018-11-22T15:02:43.975Z,39.50
2018-11-22T15:05:12.774Z,35.57
2018-11-22T15:07:41.555Z,38.90
2018-11-22T15:10:11.479Z,38.73
2018-11-22T15:12:40.190Z,40.20
2018-11-22T15:15:10.687Z,42.80
2018-11-22T15:17:39.165Z,38.97
2018-11-22T15:20:09.133Z,37.37
2018-11-22T15:22:37.291Z,41.97
2018-11-22T15:25:06.926Z,43.50
2018-11-22T15:27:35.060Z,45.87
2018-11-22T15:30:04.505Z,41.13
2018-11-22T15:32:32.643Z,44.90
2018-11-22T15:35:00.823Z,41.20
2018-11-22T15:37:29.008Z,39.77
2018-11-22T15:39:57.146Z,41.00
2018-11-22T15:42:25.288Z,34.90
2018-11-22T15:44:53.434Z,31.07
2018-11-22T15:47:21.583Z,36.07
2018-11-22T15:49:49.716Z,36.93
2018-11-22T15:52:17.845Z,47.63
2018-11-22T15:54:45.992Z,40.27
2018-11-22T15:57:14.135Z,44.90
2018-11-22T15:59:42.279Z,41.67
2018-11-22T16:02:10.839Z,40.80
2018-11-22T16:04:41.616Z,43.47
2018-11-22T16:07:09.834Z,40.90
2018-11-22T16:09:38.619Z,37.17
2018-11-22T16:12:06.793Z,41.90
2018-11-22T16:14:34.918Z,43.87
2018-11-22T16:17:03.510Z,48.53
2018-11-22T16:19:31.874Z,37.07
2018-11-22T16:22:00.023Z,41.50
2018-11-22T16:24:28.191Z,45.00
2018-11-22T16:26:56.343Z,48.50
2018-11-22T16:29:24.485Z,42.73
2018-11-22T16:31:53.144Z,47.73
2018-11-22T16:34:21.343Z,45.50
2018-11-22T16:36:49.563Z,48.63
2018-11-22T16:39:18.198Z,50.47
2018-11-22T16:41:46.746Z,40.57
2018-11-22T16:44:14.923Z,42.63
2018-11-22T16:46:43.121Z,43.53
2018-11-22T16:49:13.480Z,43.77
2018-11-22T16:51:42.163Z,48.03
2018-11-22T16:54:10.393Z,54.00
2018-11-22T16:56:38.574Z,56.17
2018-11-22T16:59:06.749Z,45.43
2018-11-22T17:01:34.934Z,44.60
2018-11-22T17:04:03.097Z,50.23
2018-11-22T17:06:31.293Z,49.23
2018-11-22T17:08:59.469Z,48.43
2018-11-22T17:11:27.659Z,49.70
2018-11-22T17:13:55.834Z,48.77
2018-11-22T17:16:24.106Z,45.90
2018-11-22T17:18:52.286Z,49.40
2018-11-22T17:21:20.483Z,43.10
2018-11-22T17:23:48.639Z,48.27
2018-11-22T17:26:16.837Z,42.53
2018-11-22T17:28:45.017Z,53.57
2018-11-22T17:31:13.218Z,49.90
2018-11-22T17:33:41.403Z,50.27
2018-11-22T17:36:09.560Z,50.90
2018-11-22T17:38:37.724Z,50.93
2018-11-22T17:41:06.179Z,48.70
2018-11-22T17:43:34.339Z,48.10
2018-11-22T17:46:02.491Z,55.90
2018-11-22T17:48:30.627Z,50.10
2018-11-22T17:50:58.799Z,50.10
2018-11-22T17:53:26.958Z,55.30
2018-11-22T17:55:55.127Z,62.03
2018-11-22T17:58:23.380Z,49.40
2018-11-22T18:00:52.931Z,64.33
2018-11-22T18:03:21.181Z,72.73
2018-11-22T18:05:49.841Z,81.57
2018-11-22T18:08:18.090Z,72.60
2018-11-22T18:10:46.238Z,64.53
2018-11-22T18:13:14.438Z,64.40
2018-11-22T18:15:48.119Z,73.60
2018-11-22T18:18:16.291Z,61.57
2018-11-22T18:20:44.518Z,63.43
2018-11-22T18:23:12.719Z,68.10
2018-11-22T18:25:40.894Z,58.57
2018-11-22T18:28:09.058Z,65.63
2018-11-22T18:30:37.446Z,61.80
2018-11-22T18:33:06.991Z,64.57
2018-11-22T18:35:35.199Z,82.10
2018-11-22T18:38:03.780Z,78.10
2018-11-22T18:40:33.641Z,76.13
2018-11-22T18:43:02.844Z,79.60
2018-11-22T18:45:33.310Z,113.30
2018-11-22T18:48:02.446Z,85.60
2018-11-22T18:50:31.751Z,79.60
2018-11-22T18:53:00.004Z,77.33
2018-11-22T18:55:28.200Z,81.17
2018-11-22T18:57:56.333Z,83.93
2018-11-22T19:00:26.884Z,76.80
2018-11-22T19:02:56.463Z,58.67
2018-11-22T19:05:24.767Z,58.67
2018-11-22T19:07:53.707Z,43.70
2018-11-22T19:10:33.963Z,53.23
2018-11-22T19:13:03.544Z,50.60
2018-11-22T19:15:33.159Z,47.93
2018-11-22T19:18:01.459Z,50.70
2018-11-22T19:20:31.874Z,48.90
2018-11-22T19:23:01.058Z,48.60
2018-11-22T19:25:29.221Z,49.83
2018-11-22T19:27:58.227Z,44.60
2018-11-22T19:30:27.605Z,50.57
2018-11-22T19:32:57.055Z,48.23
2018-11-22T19:35:26.822Z,46.43
2018-11-22T19:37:55.096Z,38.30
2018-11-22T19:40:29.639Z,47.47
2018-11-22T19:42:59.260Z,45.40
2018-11-22T19:45:29.047Z,45.63
2018-11-22T19:47:57.405Z,49.50
2018-11-22T19:50:26.779Z,48.43
2018-11-22T19:52:55.841Z,45.17
2018-11-22T19:55:25.640Z,43.80
2018-11-22T19:57:55.145Z,42.83
2018-11-22T20:00:25.175Z,52.93
2018-11-22T20:02:56.279Z,39.70
2018-11-22T20:05:25.492Z,45.60
2018-11-22T20:07:57.225Z,41.90
2018-11-22T20:10:31.804Z,52.13
2018-11-22T20:13:00.240Z,50.50
2018-11-22T20:15:28.858Z,41.63
2018-11-22T20:17:58.989Z,44.83
2018-11-22T20:20:27.537Z,40.87
2018-11-22T20:22:56.347Z,40.83
2018-11-22T20:25:24.747Z,45.87
2018-11-22T20:27:54.321Z,41.73
2018-11-22T20:30:27.182Z,43.97
2018-11-22T20:32:55.487Z,38.67
2018-11-22T20:35:24.160Z,43.20
2018-11-22T20:37:53.371Z,44.87
2018-11-22T20:40:22.675Z,45.53
2018-11-22T20:42:50.933Z,43.10
2018-11-22T20:45:20.437Z,41.07
2018-11-22T20:47:50.945Z,42.97
2018-11-22T20:50:20.814Z,44.03
2018-11-22T20:52:49.107Z,42.97
2018-11-22T20:55:22.965Z,46.50
2018-11-22T20:57:53.164Z,48.57
2018-11-22T21:00:22.786Z,44.13
2018-11-22T21:02:51.153Z,41.20
2018-11-22T21:05:20.135Z,52.90
2018-11-22T21:07:48.395Z,43.83
2018-11-22T21:10:19.059Z,42.13
2018-11-22T21:12:47.330Z,44.07
2018-11-22T21:15:17.854Z,46.93
2018-11-22T21:17:47.098Z,50.33
2018-11-22T21:20:16.499Z,46.30
2018-11-22T21:22:44.852Z,51.47
2018-11-22T21:25:14.488Z,49.20
2018-11-22T21:27:42.744Z,53.50
2018-11-22T21:30:36.885Z,48.03
2018-11-22T21:33:05.292Z,51.87
2018-11-22T21:35:33.870Z,54.43
2018-11-22T21:38:03.025Z,55.47
2018-11-22T21:40:31.839Z,49.50
2018-11-22T21:43:00.083Z,44.97
2018-11-22T21:45:28.902Z,36.80
2018-11-22T21:47:57.319Z,44.70
2018-11-22T21:50:26.684Z,50.33
2018-11-22T21:52:54.978Z,43.83
2018-11-22T21:55:25.484Z,46.77
2018-11-22T21:57:55.091Z,45.27
2018-11-22T22:00:26.200Z,44.13
2018-11-22T22:02:57.065Z,48.43
2018-11-22T22:05:25.278Z,41.07
2018-11-22T22:07:53.567Z,42.90
2018-11-22T22:10:21.785Z,41.83
2018-11-22T22:12:50.100Z,40.97
2018-11-22T22:15:20.876Z,44.20
2018-11-22T22:17:49.252Z,47.47
2018-11-22T22:20:18.992Z,45.27
2018-11-22T22:22:47.249Z,47.30
2018-11-22T22:25:16.662Z,54.27
2018-11-22T22:27:45.326Z,45.50
2018-11-22T22:30:18.262Z,46.00
2018-11-22T22:32:47.257Z,44.23
2018-11-22T22:35:15.468Z,44.00
2018-11-22T22:37:43.625Z,42.53
2018-11-22T22:40:16.201Z,38.73
2018-11-22T22:42:45.444Z,42.40
2018-11-22T22:45:14.542Z,51.27
2018-11-22T22:47:43.434Z,41.93
2018-11-22T22:50:14.238Z,43.83
2018-11-22T22:52:42.386Z,42.83
2018-11-22T22:55:11.422Z,39.17
2018-11-22T22:57:39.851Z,42.37
2018-11-22T23:00:18.489Z,48.30
2018-11-22T23:02:46.757Z,38.00
2018-11-22T23:05:14.982Z,40.37
2018-11-22T23:07:43.137Z,51.70
2018-11-22T23:10:11.314Z,42.43
2018-11-22T23:12:39.506Z,44.10
2018-11-22T23:15:10.230Z,40.87
2018-11-22T23:17:38.860Z,37.83
2018-11-22T23:20:10.769Z,65.33
2018-11-22T23:22:39.267Z,43.37
2018-11-22T23:25:07.700Z,46.50
2018-11-22T23:27:35.949Z,38.73
2018-11-22T23:30:05.594Z,42.80
2018-11-22T23:32:33.812Z,42.53
2018-11-22T23:35:01.982Z,45.07
2018-11-22T23:37:30.130Z,49.53
2018-11-22T23:39:58.298Z,45.30
2018-11-22T23:42:26.447Z,54.77
2018-11-22T23:44:54.621Z,50.20
2018-11-22T23:47:22.769Z,41.83
2018-11-22T23:49:50.939Z,55.23
2018-11-22T23:52:19.085Z,48.57
2018-11-22T23:54:47.262Z,50.80
2018-11-22T23:57:15.421Z,50.10
2018-11-22T23:59:43.569Z,38.90
